Time;durP1;ratioP1;P1;durP2;ratioP2;P2;SDS_P1;SDS_P2;PMS_P1;PMS_P2;Temp;Humidity;BMP_temperature;BMP_pressure;BME280_temperature;BME280_humidity;BME280_pressure;Samples;Min_cycle;Max_cycle;Signal;HPM_P1;HPM_P2
2023/07/30 00:00:11;;;;;;;;;;;17.50;99.90;;;;;;12502097;28;20576;-44
2023/07/30 00:06:14;;;;;;;;;;;17.50;99.90;;;;;;12504727;28;20365;-45
2023/07/30 00:12:17;;;;;;;;;;;17.50;99.90;;;;;;12504002;28;20675;-45
2023/07/30 00:18:19;;;;;;;;;;;17.30;99.90;;;;;;12519512;28;19931;-44
2023/07/30 00:24:21;;;;;;;;;;;17.30;99.90;;;;;;12492742;28;19929;-45
2023/07/30 00:30:24;;;;;;;;;;;17.30;99.90;;;;;;12510676;28;19928;-45
2023/07/30 00:36:27;;;;;;;;;;;17.20;99.90;;;;;;12508126;28;20110;-45
2023/07/30 00:42:29;;;;;;;;;;;17.30;99.90;;;;;;12498663;28;19944;-44
2023/07/30 00:48:34;;;;;;;;;;;17.10;99.90;;;;;;12499861;28;20202;-45
2023/07/30 00:54:39;;;;;;;;;;;17.00;99.90;;;;;;12521650;28;19929;-45
2023/07/30 01:00:42;;;;;;;;;;;17.00;99.90;;;;;;12518953;28;20335;-45
2023/07/30 01:06:45;;;;;;;;;;;16.90;99.90;;;;;;12531250;28;20400;-45
2023/07/30 01:12:50;;;;;;;;;;;16.90;99.90;;;;;;12513916;28;19920;-45
2023/07/30 01:18:53;;;;;;;;;;;16.80;99.90;;;;;;12501856;28;20219;-44
2023/07/30 01:24:55;;;;;;;;;;;16.80;99.90;;;;;;12515095;28;19921;-44
2023/07/30 01:31:01;;;;;;;;;;;16.70;99.90;;;;;;12505856;28;19920;-45
2023/07/30 01:37:05;;;;;;;;;;;16.60;99.90;;;;;;12525004;28;20335;-44
2023/07/30 01:43:10;;;;;;;;;;;16.60;99.90;;;;;;12517464;28;20309;-45
2023/07/30 01:49:13;;;;;;;;;;;16.50;99.90;;;;;;12513316;28;20304;-45
2023/07/30 01:55:15;;;;;;;;;;;16.50;99.90;;;;;;12509842;28;19920;-45
2023/07/30 02:01:20;;;;;;;;;;;16.50;99.90;;;;;;12518580;28;19928;-44
2023/07/30 02:07:23;;;;;;;;;;;16.50;99.90;;;;;;12507253;28;19925;-45
2023/07/30 02:13:26;;;;;;;;;;;16.50;99.90;;;;;;12496608;28;19962;-45
2023/07/30 02:19:29;;;;;;;;;;;16.40;99.90;;;;;;12517269;28;19925;-45
2023/07/30 02:25:32;;;;;;;;;;;16.40;99.90;;;;;;12508045;28;19920;-44
2023/07/30 02:31:36;;;;;;;;;;;16.20;99.90;;;;;;12522832;28;19921;-44
2023/07/30 02:37:40;;;;;;;;;;;16.20;99.90;;;;;;12514688;28;19925;-45
2023/07/30 02:43:44;;;;;;;;;;;16.10;99.90;;;;;;12521328;28;20283;-45
2023/07/30 02:49:47;;;;;;;;;;;16.10;99.90;;;;;;12542734;28;20289;-44
2023/07/30 02:55:49;;;;;;;;;;;16.00;99.90;;;;;;12533130;28;20007;-45
2023/07/30 03:01:52;;;;;;;;;;;16.00;99.90;;;;;;12524810;28;19924;-44
2023/07/30 03:07:54;;;;;;;;;;;16.00;99.90;;;;;;12532072;28;19920;-44
2023/07/30 03:13:57;;;;;;;;;;;16.00;99.90;;;;;;12510081;28;20134;-45
2023/07/30 03:19:59;;;;;;;;;;;16.00;99.90;;;;;;12508258;28;20373;-44
2023/07/30 03:26:02;;;;;;;;;;;16.00;99.90;;;;;;12512216;28;20734;-44
2023/07/30 03:32:06;;;;;;;;;;;15.90;99.90;;;;;;12521915;28;19990;-44
2023/07/30 03:38:09;;;;;;;;;;;15.80;99.90;;;;;;12519041;28;19921;-45
2023/07/30 03:44:11;;;;;;;;;;;15.80;99.90;;;;;;12518773;28;19920;-45
2023/07/30 03:50:14;;;;;;;;;;;15.80;99.90;;;;;;12526388;28;20337;-44
2023/07/30 03:56:17;;;;;;;;;;;15.80;99.90;;;;;;12498979;28;19947;-45
2023/07/30 04:02:20;;;;;;;;;;;15.70;99.90;;;;;;12495051;28;19921;-44
2023/07/30 04:08:23;;;;;;;;;;;15.80;99.90;;;;;;12507717;28;19932;-44
2023/07/30 04:14:25;;;;;;;;;;;15.80;99.90;;;;;;12524537;28;20004;-44
2023/07/30 04:20:28;;;;;;;;;;;16.20;99.90;;;;;;12503131;28;20517;-45
2023/07/30 04:26:30;;;;;;;;;;;16.80;99.90;;;;;;12492570;28;20301;-44
2023/07/30 04:32:33;;;;;;;;;;;17.20;99.90;;;;;;12503496;28;19925;-45
2023/07/30 04:38:36;;;;;;;;;;;17.70;99.90;;;;;;12501380;28;20466;-45
2023/07/30 04:44:39;;;;;;;;;;;17.30;99.90;;;;;;12511800;28;19921;-44
2023/07/30 04:50:42;;;;;;;;;;;16.50;99.90;;;;;;12518247;28;20054;-46
2023/07/30 04:56:45;;;;;;;;;;;16.30;99.90;;;;;;12513830;28;19929;-44
2023/07/30 05:02:50;;;;;;;;;;;16.20;99.90;;;;;;12521845;28;20292;-44
2023/07/30 05:08:54;;;;;;;;;;;16.40;99.90;;;;;;12523326;28;19928;-44
2023/07/30 05:14:57;;;;;;;;;;;16.40;99.90;;;;;;12506313;28;19921;-44
2023/07/30 05:21:00;;;;;;;;;;;16.70;99.90;;;;;;12516099;28;19951;-45
2023/07/30 05:27:02;;;;;;;;;;;16.50;99.90;;;;;;12514110;28;20297;-44
2023/07/30 05:33:05;;;;;;;;;;;16.50;99.90;;;;;;12514585;28;20259;-45
2023/07/30 05:39:08;;;;;;;;;;;16.20;99.90;;;;;;12493688;28;19979;-44
2023/07/30 05:45:12;;;;;;;;;;;16.10;99.90;;;;;;12526118;28;20094;-44
2023/07/30 05:51:15;;;;;;;;;;;16.00;99.90;;;;;;12486126;28;19928;-45
2023/07/30 05:57:17;;;;;;;;;;;16.00;99.90;;;;;;12513961;28;19920;-44
2023/07/30 06:03:20;;;;;;;;;;;16.20;99.90;;;;;;12505915;28;19929;-44
2023/07/30 06:09:23;;;;;;;;;;;16.20;99.90;;;;;;12509949;28;19933;-44
2023/07/30 06:15:26;;;;;;;;;;;16.30;99.90;;;;;;12504028;28;20384;-44
2023/07/30 06:21:29;;;;;;;;;;;16.40;99.90;;;;;;12515654;28;20020;-44
2023/07/30 06:27:32;;;;;;;;;;;16.50;99.90;;;;;;12498595;28;19921;-44
2023/07/30 06:33:35;;;;;;;;;;;16.60;99.90;;;;;;12505774;28;19921;-44
2023/07/30 06:39:38;;;;;;;;;;;16.50;99.90;;;;;;12505202;28;19921;-44
2023/07/30 06:45:41;;;;;;;;;;;16.50;99.90;;;;;;12527805;28;20352;-44
2023/07/30 06:51:43;;;;;;;;;;;16.60;99.90;;;;;;12525180;28;19920;-44
2023/07/30 06:57:46;;;;;;;;;;;16.90;99.90;;;;;;12540075;28;20004;-44
2023/07/30 07:03:49;;;;;;;;;;;16.90;99.90;;;;;;12506201;28;19928;-44
2023/07/30 07:09:52;;;;;;;;;;;17.00;99.90;;;;;;12532863;28;19925;-45
2023/07/30 07:15:55;;;;;;;;;;;17.10;99.90;;;;;;12504196;28;19936;-44
2023/07/30 07:21:58;;;;;;;;;;;17.20;99.90;;;;;;12511315;28;19921;-44
2023/07/30 07:28:02;;;;;;;;;;;17.20;99.90;;;;;;12517512;28;19925;-44
2023/07/30 07:34:08;;;;;;;;;;;17.50;99.90;;;;;;12503659;28;19924;-45
2023/07/30 07:40:11;;;;;;;;;;;17.40;99.90;;;;;;12511883;28;19975;-44
2023/07/30 07:46:14;;;;;;;;;;;17.30;99.90;;;;;;12500817;28;20011;-45
2023/07/30 07:52:17;;;;;;;;;;;17.00;99.90;;;;;;12530573;28;19921;-44
2023/07/30 07:58:19;;;;;;;;;;;17.00;99.90;;;;;;12517912;28;19920;-45
2023/07/30 08:04:23;;;;;;;;;;;16.90;99.90;;;;;;12516671;28;19921;-44
2023/07/30 08:10:28;;;;;;;;;;;16.70;99.90;;;;;;12526255;28;19920;-44
2023/07/30 08:16:34;;;;;;;;;;;16.70;99.90;;;;;;12526535;28;20293;-44
2023/07/30 08:22:37;;;;;;;;;;;16.70;99.90;;;;;;12509749;28;19921;-44
2023/07/30 08:28:42;;;;;;;;;;;16.60;99.90;;;;;;12505297;28;19970;-44
2023/07/30 08:34:47;;;;;;;;;;;16.60;99.90;;;;;;12510762;28;19948;-44
2023/07/30 08:40:52;;;;;;;;;;;16.60;99.90;;;;;;12513427;28;19920;-44
2023/07/30 08:46:55;;;;;;;;;;;16.80;99.90;;;;;;12522584;28;19928;-44
2023/07/30 08:52:59;;;;;;;;;;;16.70;99.90;;;;;;12526439;28;19921;-44
2023/07/30 08:59:03;;;;;;;;;;;16.60;99.90;;;;;;12501636;28;19928;-44
2023/07/30 09:05:07;;;;;;;;;;;16.60;99.90;;;;;;12512955;28;19924;-44
2023/07/30 09:11:11;;;;;;;;;;;16.70;99.90;;;;;;12513328;28;19974;-44
2023/07/30 09:17:18;;;;;;;;;;;16.70;99.90;;;;;;12522325;28;20400;-44
2023/07/30 09:23:21;;;;;;;;;;;16.60;99.90;;;;;;12518109;28;19921;-45
2023/07/30 09:29:24;;;;;;;;;;;16.70;99.90;;;;;;12512259;28;19925;-44
2023/07/30 09:35:27;;;;;;;;;;;16.80;99.90;;;;;;12506183;28;19971;-44
2023/07/30 09:41:30;;;;;;;;;;;16.60;99.90;;;;;;12503367;28;19925;-44
2023/07/30 09:47:35;;;;;;;;;;;16.40;99.90;;;;;;12514111;28;19925;-44
2023/07/30 09:53:37;;;;;;;;;;;16.30;99.90;;;;;;12507411;28;19948;-44
2023/07/30 09:59:40;;;;;;;;;;;16.20;99.90;;;;;;12510160;28;19936;-44
2023/07/30 10:05:43;;;;;;;;;;;16.30;99.90;;;;;;12524879;28;19979;-44
2023/07/30 10:11:48;;;;;;;;;;;16.30;99.90;;;;;;12520394;28;20015;-44
2023/07/30 10:17:56;;;;;;;;;;;16.30;99.90;;;;;;12515536;28;19928;-44
2023/07/30 10:24:03;;;;;;;;;;;16.40;99.90;;;;;;12512804;28;19928;-44
2023/07/30 10:30:09;;;;;;;;;;;16.60;99.90;;;;;;12520800;28;19928;-44
2023/07/30 10:36:11;;;;;;;;;;;17.10;99.90;;;;;;12487069;28;19921;-45
2023/07/30 10:42:14;;;;;;;;;;;17.60;99.90;;;;;;12525879;28;20361;-45
2023/07/30 10:48:18;;;;;;;;;;;17.90;99.90;;;;;;12511768;28;19925;-44
2023/07/30 10:54:22;;;;;;;;;;;17.90;99.90;;;;;;12519000;28;19974;-44
2023/07/30 11:00:27;;;;;;;;;;;17.90;99.90;;;;;;12510867;28;19920;-45
2023/07/30 11:06:30;;;;;;;;;;;18.20;99.90;;;;;;12508087;28;19921;-45
2023/07/30 11:12:32;;;;;;;;;;;18.70;99.90;;;;;;12499413;28;19943;-45
2023/07/30 11:18:36;;;;;;;;;;;19.40;99.90;;;;;;12494210;28;19932;-45
2023/07/30 11:24:39;;;;;;;;;;;19.60;99.90;;;;;;12489686;28;20039;-44
2023/07/30 11:30:43;;;;;;;;;;;19.30;99.90;;;;;;12526410;28;19977;-45
2023/07/30 11:36:46;;;;;;;;;;;19.40;99.90;;;;;;12515120;28;19995;-45
2023/07/30 11:42:48;;;;;;;;;;;19.90;99.90;;;;;;12501698;28;20366;-45
2023/07/30 11:48:52;;;;;;;;;;;20.50;99.90;;;;;;12520955;28;19924;-45
2023/07/30 11:55:02;;;;;;;;;;;20.60;99.90;;;;;;12501562;28;20317;-45
2023/07/30 12:01:06;;;;;;;;;;;20.80;99.90;;;;;;12516700;28;19952;-45
2023/07/30 12:07:10;;;;;;;;;;;20.90;99.90;;;;;;12530706;28;19966;-45
2023/07/30 12:13:15;;;;;;;;;;;20.70;99.90;;;;;;12521809;28;19920;-45
2023/07/30 12:19:18;;;;;;;;;;;20.80;99.90;;;;;;12492231;28;20019;-45
2023/07/30 12:25:21;;;;;;;;;;;20.50;99.90;;;;;;12487904;28;20415;-45
2023/07/30 12:31:24;;;;;;;;;;;20.30;99.90;;;;;;12511877;28;19967;-45
2023/07/30 12:37:27;;;;;;;;;;;20.30;99.90;;;;;;12506937;28;19921;-45
2023/07/30 12:43:33;;;;;;;;;;;20.60;99.90;;;;;;12511217;28;20401;-45
2023/07/30 12:49:37;;;;;;;;;;;20.50;99.90;;;;;;12513684;28;19921;-45
2023/07/30 12:55:40;;;;;;;;;;;20.30;99.90;;;;;;12512918;28;19921;-45
2023/07/30 13:01:42;;;;;;;;;;;20.10;99.90;;;;;;12498572;28;19964;-45
2023/07/30 13:07:49;;;;;;;;;;;20.10;99.90;;;;;;12530263;28;19921;-45
2023/07/30 13:13:52;;;;;;;;;;;20.10;99.90;;;;;;12496236;28;19925;-45
2023/07/30 13:19:55;;;;;;;;;;;20.20;99.90;;;;;;12500683;28;19936;-45
2023/07/30 13:25:57;;;;;;;;;;;20.30;99.90;;;;;;12495160;28;19925;-45
2023/07/30 13:32:00;;;;;;;;;;;19.90;99.90;;;;;;12519633;28;19927;-45
2023/07/30 13:38:04;;;;;;;;;;;19.80;99.90;;;;;;12511879;28;19956;-45
2023/07/30 13:44:10;;;;;;;;;;;19.70;99.90;;;;;;12488144;28;19928;-44
2023/07/30 13:50:14;;;;;;;;;;;19.30;99.90;;;;;;12500555;28;19960;-45
2023/07/30 13:56:17;;;;;;;;;;;19.10;99.90;;;;;;12501662;28;19952;-45
2023/07/30 14:02:20;;;;;;;;;;;18.80;99.90;;;;;;12530661;28;20415;-45
2023/07/30 14:08:23;;;;;;;;;;;18.70;99.90;;;;;;12521298;28;19925;-45
2023/07/30 14:14:27;;;;;;;;;;;18.70;99.90;;;;;;12480327;28;19966;-45
2023/07/30 14:20:30;;;;;;;;;;;18.70;99.90;;;;;;12480217;28;20393;-45
2023/07/30 14:26:32;;;;;;;;;;;18.70;99.90;;;;;;12516807;28;19928;-45
2023/07/30 14:32:36;;;;;;;;;;;18.60;99.90;;;;;;12503545;28;20432;-45
2023/07/30 14:38:39;;;;;;;;;;;18.60;99.90;;;;;;12497002;28;19960;-45
2023/07/30 14:44:43;;;;;;;;;;;18.80;99.90;;;;;;12502228;28;19921;-45
2023/07/30 14:50:46;;;;;;;;;;;19.40;99.90;;;;;;12505946;28;19992;-45
2023/07/30 14:56:48;;;;;;;;;;;19.90;99.90;;;;;;12531084;28;19990;-45
2023/07/30 15:02:53;;;;;;;;;;;20.20;99.90;;;;;;12527804;28;19927;-45
2023/07/30 15:08:56;;;;;;;;;;;20.30;99.90;;;;;;12526444;28;19929;-45
2023/07/30 15:14:58;;;;;;;;;;;20.40;99.90;;;;;;12522280;28;19925;-45
2023/07/30 15:21:01;;;;;;;;;;;20.60;99.90;;;;;;12521142;28;19925;-45
2023/07/30 15:27:04;;;;;;;;;;;20.60;99.90;;;;;;12526250;28;19925;-45
2023/07/30 15:33:10;;;;;;;;;;;20.40;99.90;;;;;;12513563;28;19928;-45
2023/07/30 15:39:13;;;;;;;;;;;20.70;99.90;;;;;;12491856;28;19944;-45
2023/07/30 15:45:17;;;;;;;;;;;20.90;99.90;;;;;;12526020;28;19921;-45
2023/07/30 15:51:21;;;;;;;;;;;21.10;99.90;;;;;;12514080;28;20058;-45
2023/07/30 15:57:23;;;;;;;;;;;21.00;99.90;;;;;;12516115;28;19956;-45
2023/07/30 16:03:26;;;;;;;;;;;20.90;99.90;;;;;;12537638;28;19968;-45
2023/07/30 16:09:29;;;;;;;;;;;20.80;99.90;;;;;;12522071;28;19920;-45
2023/07/30 16:15:32;;;;;;;;;;;21.00;99.90;;;;;;12499176;28;19963;-45
2023/07/30 16:21:35;;;;;;;;;;;20.40;99.90;;;;;;12530409;28;20044;-45
2023/07/30 16:27:38;;;;;;;;;;;19.80;99.90;;;;;;12490892;28;19921;-45
2023/07/30 16:33:42;;;;;;;;;;;19.60;99.90;;;;;;12504841;28;19944;-45
2023/07/30 16:39:46;;;;;;;;;;;20.00;99.90;;;;;;12523206;28;19936;-45
2023/07/30 16:45:50;;;;;;;;;;;20.10;99.90;;;;;;12513956;28;19943;-45
2023/07/30 16:51:53;;;;;;;;;;;20.10;99.90;;;;;;12512113;28;19920;-45
2023/07/30 16:57:56;;;;;;;;;;;20.50;99.90;;;;;;12526056;28;20015;-45
2023/07/30 17:04:00;;;;;;;;;;;20.80;99.90;;;;;;12514787;28;19920;-45
2023/07/30 17:10:04;;;;;;;;;;;20.70;99.90;;;;;;12521363;28;20267;-45
2023/07/30 17:16:11;;;;;;;;;;;20.20;99.90;;;;;;12482845;28;19924;-45
2023/07/30 17:22:21;;;;;;;;;;;19.90;99.90;;;;;;12493045;28;19920;-45
2023/07/30 17:28:24;;;;;;;;;;;19.50;99.90;;;;;;12511201;28;20305;-44
2023/07/30 17:34:27;;;;;;;;;;;19.40;99.90;;;;;;12514405;28;19925;-44
2023/07/30 17:40:30;;;;;;;;;;;19.60;99.90;;;;;;12508793;28;20100;-44
2023/07/30 17:46:34;;;;;;;;;;;19.60;99.90;;;;;;12512497;28;20015;-44
2023/07/30 17:52:39;;;;;;;;;;;19.40;99.90;;;;;;12499223;28;19921;-44
2023/07/30 17:58:41;;;;;;;;;;;19.20;99.90;;;;;;12518776;28;20445;-44
2023/07/30 18:04:44;;;;;;;;;;;19.10;99.90;;;;;;12521971;28;20321;-44
2023/07/30 18:10:50;;;;;;;;;;;19.00;99.90;;;;;;12503387;28;19932;-44
2023/07/30 18:16:52;;;;;;;;;;;19.00;99.90;;;;;;12513823;28;19924;-44
2023/07/30 18:22:54;;;;;;;;;;;19.00;99.90;;;;;;12520892;28;19921;-44
2023/07/30 18:28:57;;;;;;;;;;;18.90;99.90;;;;;;12519880;28;19932;-44
2023/07/30 18:35:00;;;;;;;;;;;18.90;99.90;;;;;;12494751;28;20023;-44
2023/07/30 18:41:07;;;;;;;;;;;18.90;99.90;;;;;;12498504;28;19921;-45
2023/07/30 18:47:10;;;;;;;;;;;18.70;99.90;;;;;;12524602;28;19931;-45
2023/07/30 18:53:13;;;;;;;;;;;18.60;99.90;;;;;;12512007;28;19928;-45
2023/07/30 18:59:16;;;;;;;;;;;18.60;99.90;;;;;;12514928;28;19921;-45
2023/07/30 19:05:19;;;;;;;;;;;18.50;99.90;;;;;;12528058;28;19971;-45
2023/07/30 19:11:24;;;;;;;;;;;18.40;99.90;;;;;;12515110;28;20262;-45
2023/07/30 19:17:29;;;;;;;;;;;18.30;99.90;;;;;;12513324;28;20293;-45
2023/07/30 19:23:33;;;;;;;;;;;18.30;99.90;;;;;;12511977;28;20345;-45
2023/07/30 19:29:36;;;;;;;;;;;18.20;99.90;;;;;;12500188;28;20291;-45
2023/07/30 19:35:39;;;;;;;;;;;18.10;99.90;;;;;;12520476;28;19921;-45
2023/07/30 19:41:52;;;;;;;;;;;18.20;99.90;;;;;;12510688;28;19970;-45
2023/07/30 19:47:54;;;;;;;;;;;18.20;99.90;;;;;;12527192;28;20400;-45
2023/07/30 19:53:59;;;;;;;;;;;18.10;99.90;;;;;;12506864;28;20381;-45
2023/07/30 20:00:04;;;;;;;;;;;18.10;99.90;;;;;;12524371;28;19978;-45
2023/07/30 20:06:07;;;;;;;;;;;18.10;99.90;;;;;;12530815;28;20015;-45
2023/07/30 20:12:13;;;;;;;;;;;18.00;99.90;;;;;;12497196;28;20400;-45
2023/07/30 20:18:16;;;;;;;;;;;18.00;99.90;;;;;;12515134;28;20361;-45
2023/07/30 20:24:20;;;;;;;;;;;18.00;99.90;;;;;;12505336;28;19956;-45
2023/07/30 20:30:23;;;;;;;;;;;17.90;99.90;;;;;;12495094;28;19975;-45
2023/07/30 20:36:26;;;;;;;;;;;17.90;99.90;;;;;;12499072;28;20015;-45
2023/07/30 20:42:28;;;;;;;;;;;17.90;99.90;;;;;;12514343;28;20011;-45
2023/07/30 20:48:33;;;;;;;;;;;17.90;99.90;;;;;;12522972;28;19974;-45
2023/07/30 20:54:40;;;;;;;;;;;17.90;99.90;;;;;;12516059;28;20370;-45
2023/07/30 21:00:43;;;;;;;;;;;17.80;99.90;;;;;;12517320;28;19928;-45
2023/07/30 21:06:48;;;;;;;;;;;17.80;99.90;;;;;;12510143;28;19932;-45
2023/07/30 21:12:50;;;;;;;;;;;17.90;99.90;;;;;;12509954;28;20266;-45
2023/07/30 21:18:53;;;;;;;;;;;17.80;99.90;;;;;;12512709;28;19921;-45
2023/07/30 21:24:56;;;;;;;;;;;17.60;99.90;;;;;;12492755;28;19978;-45
2023/07/30 21:31:06;;;;;;;;;;;17.40;99.90;;;;;;12500188;28;19933;-44
2023/07/30 21:37:09;;;;;;;;;;;16.90;99.90;;;;;;12511211;28;19928;-44
2023/07/30 21:43:12;;;;;;;;;;;16.60;99.90;;;;;;12502983;28;19920;-45
2023/07/30 21:49:15;;;;;;;;;;;16.40;99.90;;;;;;12512006;28;19921;-45
2023/07/30 21:55:18;;;;;;;;;;;16.00;99.90;;;;;;12509586;28;19921;-45
2023/07/30 22:01:20;;;;;;;;;;;15.90;99.90;;;;;;12520446;28;19925;-45
2023/07/30 22:07:22;;;;;;;;;;;15.80;99.90;;;;;;12527738;28;20055;-45
2023/07/30 22:13:25;;;;;;;;;;;15.80;99.90;;;;;;12522438;28;20412;-44
2023/07/30 22:19:27;;;;;;;;;;;15.80;99.90;;;;;;12513145;28;19944;-45
2023/07/30 22:25:30;;;;;;;;;;;15.80;99.90;;;;;;12504514;28;19932;-44
2023/07/30 22:31:33;;;;;;;;;;;15.90;99.90;;;;;;12535226;28;19983;-44
2023/07/30 22:37:36;;;;;;;;;;;15.80;99.90;;;;;;12519590;28;19975;-44
2023/07/30 22:43:39;;;;;;;;;;;15.80;99.90;;;;;;12521435;28;19924;-44
2023/07/30 22:49:42;;;;;;;;;;;15.90;99.90;;;;;;12530419;28;19935;-45
2023/07/30 22:55:45;;;;;;;;;;;15.90;99.90;;;;;;12516028;28;20039;-44
2023/07/30 23:01:48;;;;;;;;;;;15.90;99.90;;;;;;12516323;28;20735;-46
2023/07/30 23:07:51;;;;;;;;;;;16.00;99.90;;;;;;12524101;28;19920;-45
2023/07/30 23:13:54;;;;;;;;;;;15.90;99.90;;;;;;12498001;28;19931;-44
2023/07/30 23:19:57;;;;;;;;;;;15.90;99.90;;;;;;12509040;28;19929;-45
2023/07/30 23:25:59;;;;;;;;;;;15.80;99.90;;;;;;12506219;28;19920;-45
2023/07/30 23:32:02;;;;;;;;;;;15.80;99.90;;;;;;12508667;28;19924;-45
2023/07/30 23:38:04;;;;;;;;;;;15.80;99.90;;;;;;12517320;28;19924;-44
2023/07/30 23:44:07;;;;;;;;;;;15.90;99.90;;;;;;12500388;28;20323;-44
2023/07/30 23:50:09;;;;;;;;;;;15.80;99.90;;;;;;12510643;28;19924;-45
2023/07/30 23:56:11;;;;;;;;;;;15.70;99.90;;;;;;12507055;28;19921;-44
